Pays
Station

 

Conditions  météo  pour  Watertown, Watertown Municipal Airport  -  Etats-Unis    Etats-Unis

  
19 °C
    
 
 

METAR pour Watertown, Watertown Municipal Airport :

KATY 231653Z AUTO 12012G19KT 10SM OVC049 19/12 A3013 RMK AO2 SLP201 T01940122

 

Voici le bulletin pour Watertown, Watertown Municipal Airport - Etats-Unis.
 
Le bulletin a été fait il y a 50 minutes, à 16:53 UTC .
Le vent soufflait à la vitesse de 6.2 mètres par seconde avec des rafales jusqu'à 9.8 mètres par seconde de Est/Sud-est (120°).
 
La température était de 19 °C, avec un point de rosée à 12 °C.
La pression atmosphérique était de 1020 hPa.
L'humidité relative était de 63.8%.
 
Le ciel était nuageux à partir d'une hauteur de 1494 mètres
 
La visibilité globale était de 16.1 kilomètres.
 

 
 
 

Pays :   A   B   C   D   E   F   G   H   I   J   K   L   M   N   O   P   Q   R   S   T   U   V   W   Y   Z

 

Partenaires :  Info Météo avec Met'info
Météo Marine avec MeteoMarine.net
Infos Site  |  Infos Légales  |  Crédits  |  Confidentialité
Contactez-nous  |  Ajouter aux favoris
© 2013-2019 METAR - Tous droits réservés